createdAt,value
2018-05-23T00:00:00.716Z,1017.1
2018-05-23T00:01:00.712Z,1017.15
2018-05-23T00:02:00.679Z,1017.15
2018-05-23T00:03:00.680Z,1017.17
2018-05-23T00:04:00.685Z,1017.14
2018-05-23T00:05:00.626Z,1017.13
2018-05-23T00:06:00.715Z,1017.18
2018-05-23T00:07:00.651Z,1017.17
2018-05-23T00:08:00.785Z,1017.17
2018-05-23T00:09:00.608Z,1017.15
2018-05-23T00:10:00.645Z,1017.19
2018-05-23T00:11:00.546Z,1017.16
2018-05-23T00:12:00.823Z,1017.21
2018-05-23T00:13:00.888Z,1017.18
2018-05-23T00:14:00.535Z,1017.16
2018-05-23T00:15:00.640Z,1017.13
2018-05-23T00:16:00.702Z,1017.13
2018-05-23T00:17:00.538Z,1017.11
2018-05-23T00:18:00.753Z,1017.12
2018-05-23T00:19:00.732Z,1017.08
2018-05-23T00:20:00.691Z,1017.1
2018-05-23T00:21:00.669Z,1017.05
2018-05-23T00:22:00.545Z,1017.09
2018-05-23T00:23:00.528Z,1017.1
2018-05-23T00:24:00.791Z,1017.06
2018-05-23T00:25:00.697Z,1017.08
2018-05-23T00:26:00.745Z,1017.09
2018-05-23T00:27:00.604Z,1017.08
2018-05-23T00:28:00.561Z,1017.12
2018-05-23T00:29:00.559Z,1017.15
2018-05-23T00:30:00.825Z,1017.11
2018-05-23T00:31:00.516Z,1017.13
2018-05-23T00:32:00.581Z,1017.08
2018-05-23T00:33:00.520Z,1017.1
2018-05-23T00:34:00.686Z,1017.12
2018-05-23T00:35:00.652Z,1017.12
2018-05-23T00:36:00.571Z,1017.16
2018-05-23T00:37:00.648Z,1017.2
2018-05-23T00:38:00.613Z,1017.19
2018-05-23T00:39:00.520Z,1017.22
2018-05-23T00:40:00.468Z,1017.18
2018-05-23T00:41:00.585Z,1017.19
2018-05-23T00:42:00.590Z,1017.14
2018-05-23T00:43:00.714Z,1017.16
2018-05-23T00:44:00.702Z,1017.16
2018-05-23T00:45:00.674Z,1017.16
2018-05-23T00:46:00.589Z,1017.12
2018-05-23T00:47:00.672Z,1017.17
2018-05-23T00:48:00.586Z,1017.16
2018-05-23T00:49:00.525Z,1017.16
2018-05-23T00:50:00.558Z,1017.19
2018-05-23T00:51:00.778Z,1017.2
2018-05-23T00:52:00.620Z,1017.19
2018-05-23T00:53:00.702Z,1017.19
2018-05-23T00:54:00.664Z,1017.23
2018-05-23T00:55:00.688Z,1017.21
2018-05-23T00:56:00.477Z,1017.22
2018-05-23T00:57:00.659Z,1017.22
2018-05-23T00:58:10.546Z,1017.17
2018-05-23T00:59:00.496Z,1017.18
2018-05-23T01:00:00.707Z,1017.17
2018-05-23T01:01:00.572Z,1017.16
2018-05-23T01:02:00.688Z,1017.15
2018-05-23T01:03:00.446Z,1017.18
2018-05-23T01:04:00.907Z,1017.19
2018-05-23T01:05:00.760Z,1017.17
2018-05-23T01:06:00.706Z,1017.19
2018-05-23T01:07:00.724Z,1017.21
2018-05-23T01:08:00.705Z,1017.22
2018-05-23T01:09:00.662Z,1017.23
2018-05-23T01:10:00.499Z,1017.19
2018-05-23T01:11:00.850Z,1017.19
2018-05-23T01:12:00.584Z,1017.22
2018-05-23T01:13:00.621Z,1017.25
2018-05-23T01:14:00.775Z,1017.25
2018-05-23T01:15:00.688Z,1017.24
2018-05-23T01:16:00.533Z,1017.23
2018-05-23T01:17:00.583Z,1017.24
2018-05-23T01:18:00.613Z,1017.26
2018-05-23T01:19:00.593Z,1017.29
2018-05-23T01:20:00.869Z,1017.3
2018-05-23T01:21:00.587Z,1017.32
2018-05-23T01:22:00.502Z,1017.35
2018-05-23T01:23:00.751Z,1017.36
2018-05-23T01:24:00.724Z,1017.32
2018-05-23T01:25:00.797Z,1017.34
2018-05-23T01:26:00.614Z,1017.31
2018-05-23T01:27:00.743Z,1017.33
2018-05-23T01:28:00.557Z,1017.32
2018-05-23T01:29:00.860Z,1017.33
2018-05-23T01:30:00.689Z,1017.29
2018-05-23T01:31:00.579Z,1017.32
2018-05-23T01:32:00.524Z,1017.3
2018-05-23T01:33:00.779Z,1017.32
2018-05-23T01:34:00.488Z,1017.31
2018-05-23T01:35:00.654Z,1017.34
2018-05-23T01:36:00.741Z,1017.36
2018-05-23T01:37:00.475Z,1017.35
2018-05-23T01:38:00.781Z,1017.34
2018-05-23T01:39:00.731Z,1017.39
2018-05-23T01:40:00.703Z,1017.35
2018-05-23T01:41:00.578Z,1017.37
2018-05-23T01:42:00.600Z,1017.34
2018-05-23T01:43:00.631Z,1017.39
2018-05-23T01:44:00.706Z,1017.4
2018-05-23T01:45:00.483Z,1017.4
2018-05-23T01:46:00.512Z,1017.41
2018-05-23T01:47:00.476Z,1017.43
2018-05-23T01:48:00.844Z,1017.41
2018-05-23T01:49:00.668Z,1017.41
2018-05-23T01:50:00.663Z,1017.41
2018-05-23T01:51:00.496Z,1017.45
2018-05-23T01:52:00.678Z,1017.42
2018-05-23T01:53:00.587Z,1017.49
2018-05-23T01:54:00.525Z,1017.49
2018-05-23T01:55:00.749Z,1017.48
2018-05-23T01:56:00.500Z,1017.5
2018-05-23T01:57:00.605Z,1017.5
2018-05-23T01:58:00.698Z,1017.53
2018-05-23T01:59:00.598Z,1017.53
2018-05-23T02:00:00.743Z,1017.47
2018-05-23T02:01:00.601Z,1017.52
2018-05-23T02:02:00.653Z,1017.48
2018-05-23T02:03:00.512Z,1017.52
2018-05-23T02:04:00.518Z,1017.56
2018-05-23T02:05:00.654Z,1017.58
2018-05-23T02:06:00.893Z,1017.6
2018-05-23T02:07:00.602Z,1017.62
2018-05-23T02:08:00.687Z,1017.55
2018-05-23T02:09:00.521Z,1017.57
2018-05-23T02:10:00.716Z,1017.56
2018-05-23T02:11:00.641Z,1017.52
2018-05-23T02:12:00.520Z,1017.53
2018-05-23T02:13:01.004Z,1017.57
2018-05-23T02:14:00.680Z,1017.53
2018-05-23T02:15:00.872Z,1017.59
2018-05-23T02:16:00.703Z,1017.59
2018-05-23T02:17:00.532Z,1017.6
2018-05-23T02:18:00.687Z,1017.61
2018-05-23T02:19:00.770Z,1017.61
2018-05-23T02:20:00.689Z,1017.64
2018-05-23T02:21:00.517Z,1017.65
2018-05-23T02:22:00.778Z,1017.64
2018-05-23T02:23:00.660Z,1017.66
2018-05-23T02:24:00.633Z,1017.65
2018-05-23T02:25:00.520Z,1017.61
2018-05-23T02:26:00.697Z,1017.66
2018-05-23T02:27:00.684Z,1017.67
2018-05-23T02:28:00.512Z,1017.66
2018-05-23T02:29:00.528Z,1017.68
2018-05-23T02:30:00.509Z,1017.66
2018-05-23T02:31:00.792Z,1017.67
2018-05-23T02:32:00.698Z,1017.68
2018-05-23T02:33:00.800Z,1017.67
2018-05-23T02:34:00.633Z,1017.67
2018-05-23T02:35:00.664Z,1017.63
2018-05-23T02:36:00.591Z,1017.64
2018-05-23T02:37:00.698Z,1017.69
2018-05-23T02:38:00.732Z,1017.68
2018-05-23T02:39:00.618Z,1017.68
2018-05-23T02:40:00.701Z,1017.71
2018-05-23T02:41:00.695Z,1017.74
2018-05-23T02:42:00.626Z,1017.69
2018-05-23T02:43:00.670Z,1017.71
2018-05-23T02:44:00.564Z,1017.68
2018-05-23T02:45:00.656Z,1017.68
2018-05-23T02:46:00.693Z,1017.66
2018-05-23T02:47:00.890Z,1017.66
2018-05-23T02:48:00.515Z,1017.64
2018-05-23T02:49:00.768Z,1017.66
2018-05-23T02:50:00.535Z,1017.65
2018-05-23T02:51:00.501Z,1017.64
2018-05-23T02:52:00.652Z,1017.67
2018-05-23T02:53:00.575Z,1017.65
2018-05-23T02:54:00.587Z,1017.66
2018-05-23T02:55:00.585Z,1017.68
2018-05-23T02:56:00.546Z,1017.69
2018-05-23T02:57:00.544Z,1017.67
2018-05-23T02:58:00.553Z,1017.66
2018-05-23T02:59:00.647Z,1017.67
2018-05-23T03:00:00.518Z,1017.67
2018-05-23T03:01:00.495Z,1017.68
2018-05-23T03:02:00.735Z,1017.67
2018-05-23T03:03:00.836Z,1017.69
2018-05-23T03:04:00.650Z,1017.7
2018-05-23T03:05:00.662Z,1017.71
2018-05-23T03:06:00.479Z,1017.71
2018-05-23T03:07:00.680Z,1017.74
2018-05-23T03:08:00.621Z,1017.7
2018-05-23T03:09:00.624Z,1017.75
2018-05-23T03:10:00.600Z,1017.72
2018-05-23T03:11:00.576Z,1017.76
2018-05-23T03:12:00.733Z,1017.77
2018-05-23T03:13:00.548Z,1017.77
2018-05-23T03:14:00.517Z,1017.75
2018-05-23T03:15:00.500Z,1017.78
2018-05-23T03:16:00.577Z,1017.81
2018-05-23T03:17:00.915Z,1017.82
2018-05-23T03:18:00.662Z,1017.82
2018-05-23T03:19:00.690Z,1017.8
2018-05-23T03:20:00.516Z,1017.83
2018-05-23T03:21:00.584Z,1017.8
2018-05-23T03:22:00.770Z,1017.85
2018-05-23T03:23:00.679Z,1017.88
2018-05-23T03:24:00.462Z,1017.86
2018-05-23T03:25:00.535Z,1017.87
2018-05-23T03:26:00.681Z,1017.85
2018-05-23T03:27:00.629Z,1017.85
2018-05-23T03:28:00.822Z,1017.89
2018-05-23T03:29:00.623Z,1017.93
2018-05-23T03:30:00.600Z,1017.93
2018-05-23T03:31:00.639Z,1017.93
2018-05-23T03:32:00.499Z,1017.94
2018-05-23T03:33:00.491Z,1017.92
2018-05-23T03:34:00.675Z,1017.97
2018-05-23T03:35:00.612Z,1017.98
2018-05-23T03:36:00.681Z,1018.05
2018-05-23T03:37:00.519Z,1018.03
2018-05-23T03:38:00.585Z,1018.02
2018-05-23T03:39:00.768Z,1018.04
2018-05-23T03:40:00.473Z,1018.05
2018-05-23T03:41:00.681Z,1018.07
2018-05-23T03:42:00.562Z,1018.06
2018-05-23T03:43:00.508Z,1018.08
2018-05-23T03:44:00.597Z,1018.08
2018-05-23T03:45:00.610Z,1018.12
2018-05-23T03:46:00.672Z,1018.12
2018-05-23T03:47:00.595Z,1018.14
2018-05-23T03:48:00.696Z,1018.13
2018-05-23T03:49:00.699Z,1018.12
2018-05-23T03:50:00.583Z,1018.17
2018-05-23T03:51:10.502Z,1018.17
2018-05-23T03:52:00.669Z,1018.16
2018-05-23T03:53:00.761Z,1018.14
2018-05-23T03:54:00.632Z,1018.17
2018-05-23T03:55:00.720Z,1018.17
2018-05-23T03:56:00.454Z,1018.13
2018-05-23T03:57:00.481Z,1018.15
2018-05-23T03:58:00.617Z,1018.16
2018-05-23T03:59:00.503Z,1018.18
2018-05-23T04:00:00.559Z,1018.16
2018-05-23T04:01:00.592Z,1018.19
2018-05-23T04:02:00.701Z,1018.18
2018-05-23T04:03:00.426Z,1018.17
2018-05-23T04:04:00.525Z,1018.15
2018-05-23T04:05:00.660Z,1018.2
2018-05-23T04:06:00.694Z,1018.15
2018-05-23T04:07:00.547Z,1018.16
2018-05-23T04:08:00.454Z,1018.18
2018-05-23T04:09:00.497Z,1018.16
2018-05-23T04:10:00.684Z,1018.14
2018-05-23T04:11:00.520Z,1018.12
2018-05-23T04:12:00.451Z,1018.13
2018-05-23T04:13:00.684Z,1018.11
2018-05-23T04:14:00.888Z,1018.11
2018-05-23T04:15:00.548Z,1018.12
2018-05-23T04:16:00.472Z,1018.11
2018-05-23T04:17:00.560Z,1018.12
2018-05-23T04:18:00.554Z,1018.13
2018-05-23T04:19:00.559Z,1018.15
2018-05-23T04:20:00.483Z,1018.15
2018-05-23T04:21:10.484Z,1018.16
2018-05-23T04:22:00.556Z,1018.15
2018-05-23T04:23:00.716Z,1018.2
2018-05-23T04:24:00.737Z,1018.2
2018-05-23T04:25:01.084Z,1018.21
2018-05-23T04:26:00.579Z,1018.24
2018-05-23T04:27:00.610Z,1018.24
2018-05-23T04:28:00.491Z,1018.22
2018-05-23T04:29:00.727Z,1018.23
2018-05-23T04:30:00.649Z,1018.32
2018-05-23T04:31:00.467Z,1018.31
2018-05-23T04:32:00.496Z,1018.34
2018-05-23T04:33:00.552Z,1018.4
2018-05-23T04:34:00.567Z,1018.4
2018-05-23T04:35:00.721Z,1018.45
2018-05-23T04:36:00.569Z,1018.45
2018-05-23T04:37:00.716Z,1018.51
2018-05-23T04:38:00.604Z,1018.5
2018-05-23T04:39:00.624Z,1018.46
2018-05-23T04:40:00.533Z,1018.51
2018-05-23T04:41:00.435Z,1018.51
2018-05-23T04:42:00.499Z,1018.49
2018-05-23T04:43:00.511Z,1018.49
2018-05-23T04:44:00.697Z,1018.5
2018-05-23T04:45:00.507Z,1018.48
2018-05-23T04:46:00.557Z,1018.48
2018-05-23T04:47:00.460Z,1018.49
2018-05-23T04:48:00.513Z,1018.51
2018-05-23T04:49:00.552Z,1018.52
2018-05-23T04:50:00.792Z,1018.5
2018-05-23T04:51:00.433Z,1018.48
2018-05-23T04:52:00.620Z,1018.51
2018-05-23T04:53:00.562Z,1018.49
2018-05-23T04:54:00.697Z,1018.49
2018-05-23T04:55:00.649Z,1018.5
2018-05-23T04:56:00.709Z,1018.5
2018-05-23T04:57:00.685Z,1018.51
2018-05-23T04:58:00.666Z,1018.49
2018-05-23T04:59:00.734Z,1018.49
2018-05-23T05:00:00.661Z,1018.5
2018-05-23T05:01:00.525Z,1018.53
2018-05-23T05:02:00.722Z,1018.56
2018-05-23T05:03:00.694Z,1018.56
2018-05-23T05:04:00.581Z,1018.56
2018-05-23T05:05:00.589Z,1018.58
2018-05-23T05:06:00.627Z,1018.57
2018-05-23T05:07:00.661Z,1018.52
2018-05-23T05:08:00.497Z,1018.58
2018-05-23T05:09:00.438Z,1018.59
2018-05-23T05:10:00.866Z,1018.59
2018-05-23T05:11:00.493Z,1018.49
2018-05-23T05:12:00.623Z,1018.53
2018-05-23T05:13:00.520Z,1018.53
2018-05-23T05:14:00.612Z,1018.48
2018-05-23T05:15:00.688Z,1018.48
2018-05-23T05:16:00.511Z,1018.47
2018-05-23T05:17:00.615Z,1018.5
2018-05-23T05:18:00.497Z,1018.56
2018-05-23T05:19:00.459Z,1018.55
2018-05-23T05:20:00.485Z,1018.55
2018-05-23T05:21:00.678Z,1018.56
2018-05-23T05:22:00.651Z,1018.57
2018-05-23T05:23:00.728Z,1018.56
2018-05-23T05:24:00.639Z,1018.55
2018-05-23T05:25:01.027Z,1018.57
2018-05-23T05:26:00.522Z,1018.57
2018-05-23T05:27:00.425Z,1018.56
2018-05-23T05:28:00.515Z,1018.56
2018-05-23T05:29:00.647Z,1018.6
2018-05-23T05:30:00.483Z,1018.61
2018-05-23T05:31:00.559Z,1018.63
2018-05-23T05:32:00.545Z,1018.63
2018-05-23T05:33:00.695Z,1018.62
2018-05-23T05:34:00.556Z,1018.61
2018-05-23T05:35:00.508Z,1018.58
2018-05-23T05:36:00.439Z,1018.63
2018-05-23T05:37:00.473Z,1018.65
2018-05-23T05:38:00.549Z,1018.65
2018-05-23T05:39:00.627Z,1018.64
2018-05-23T05:40:00.502Z,1018.67
2018-05-23T05:41:00.518Z,1018.68
2018-05-23T05:42:00.514Z,1018.71
2018-05-23T05:43:00.635Z,1018.71
2018-05-23T05:44:00.708Z,1018.74
2018-05-23T05:45:00.372Z,1018.75
2018-05-23T05:46:00.579Z,1018.74
2018-05-23T05:47:00.730Z,1018.78
2018-05-23T05:48:00.502Z,1018.77
2018-05-23T05:49:00.535Z,1018.8
2018-05-23T05:50:00.631Z,1018.8
2018-05-23T05:51:00.441Z,1018.87
2018-05-23T05:52:00.553Z,1018.87
2018-05-23T05:53:00.700Z,1018.9
2018-05-23T05:54:00.390Z,1018.85
2018-05-23T05:55:00.790Z,1018.89
2018-05-23T05:56:00.636Z,1018.94
2018-05-23T05:57:00.557Z,1018.94
2018-05-23T05:58:00.416Z,1018.96
2018-05-23T05:59:00.703Z,1018.94
2018-05-23T06:00:00.722Z,1018.92
2018-05-23T06:01:00.575Z,1018.99
2018-05-23T06:02:00.739Z,1018.96
2018-05-23T06:03:00.463Z,1019
2018-05-23T06:04:00.624Z,1019.04
2018-05-23T06:05:00.695Z,1019.1
2018-05-23T06:06:00.717Z,1019.15
2018-05-23T06:07:00.663Z,1019.15
2018-05-23T06:08:00.568Z,1019.19
2018-05-23T06:09:00.484Z,1019.24
2018-05-23T06:10:01.247Z,1019.22
2018-05-23T06:11:00.468Z,1019.27
2018-05-23T06:12:00.484Z,1019.28
2018-05-23T06:13:00.469Z,1019.27
2018-05-23T06:14:00.409Z,1019.33
2018-05-23T06:15:00.470Z,1019.36
2018-05-23T06:16:00.610Z,1019.37
2018-05-23T06:17:00.671Z,1019.38
2018-05-23T06:18:00.524Z,1019.45
2018-05-23T06:19:00.398Z,1019.44
2018-05-23T06:20:00.415Z,1019.46
2018-05-23T06:21:00.416Z,1019.45
2018-05-23T06:22:00.537Z,1019.44
2018-05-23T06:23:00.480Z,1019.41
2018-05-23T06:24:00.491Z,1019.46
2018-05-23T06:25:00.568Z,1019.44
2018-05-23T06:26:00.569Z,1019.47
2018-05-23T06:27:00.640Z,1019.45
2018-05-23T06:28:00.514Z,1019.51
2018-05-23T06:29:00.464Z,1019.49
2018-05-23T06:30:00.376Z,1019.53
2018-05-23T06:31:00.533Z,1019.52
2018-05-23T06:32:00.501Z,1019.5
2018-05-23T06:33:00.547Z,1019.52
2018-05-23T06:34:00.675Z,1019.57
2018-05-23T06:35:00.477Z,1019.53
2018-05-23T06:36:00.468Z,1019.53
2018-05-23T06:37:00.568Z,1019.56
2018-05-23T06:38:00.665Z,1019.51
2018-05-23T06:39:00.369Z,1019.54
2018-05-23T06:40:00.648Z,1019.5
2018-05-23T06:41:00.653Z,1019.51
2018-05-23T06:42:00.598Z,1019.52
2018-05-23T06:43:00.662Z,1019.57
2018-05-23T06:44:00.526Z,1019.59
2018-05-23T06:45:00.774Z,1019.54
2018-05-23T06:46:00.558Z,1019.58
2018-05-23T06:47:00.598Z,1019.6
2018-05-23T06:48:00.417Z,1019.64
2018-05-23T06:49:00.535Z,1019.7
2018-05-23T06:50:00.923Z,1019.69
2018-05-23T06:51:00.517Z,1019.73
2018-05-23T06:52:00.597Z,1019.73
2018-05-23T06:53:00.580Z,1019.68
2018-05-23T06:54:00.454Z,1019.72
2018-05-23T06:55:00.539Z,1019.72
2018-05-23T06:56:00.680Z,1019.66
2018-05-23T06:57:00.460Z,1019.69
2018-05-23T06:58:00.461Z,1019.7
2018-05-23T06:59:00.656Z,1019.73
2018-05-23T07:00:00.689Z,1019.71
2018-05-23T07:01:00.698Z,1019.74
2018-05-23T07:02:00.402Z,1019.78
2018-05-23T07:03:00.595Z,1019.8
2018-05-23T07:04:00.634Z,1019.79
2018-05-23T07:05:00.619Z,1019.83
2018-05-23T07:06:00.403Z,1019.81
2018-05-23T07:07:00.493Z,1019.83
2018-05-23T07:08:00.563Z,1019.85
2018-05-23T07:09:00.421Z,1019.89
2018-05-23T07:10:00.510Z,1019.88
2018-05-23T07:11:00.862Z,1019.9
2018-05-23T07:12:00.568Z,1019.95
2018-05-23T07:13:00.674Z,1019.95
2018-05-23T07:14:00.514Z,1019.96
2018-05-23T07:15:00.445Z,1020.01
2018-05-23T07:16:00.669Z,1020.04
2018-05-23T07:17:00.546Z,1020.05
2018-05-23T07:18:01.024Z,1020.04
2018-05-23T07:19:00.537Z,1020.08
2018-05-23T07:20:00.468Z,1020.08
2018-05-23T07:21:00.593Z,1020.12
2018-05-23T07:22:00.405Z,1020.11
2018-05-23T07:23:00.558Z,1020.16
2018-05-23T07:24:00.499Z,1020.15
2018-05-23T07:25:00.491Z,1020.17
2018-05-23T07:26:00.633Z,1020.17
2018-05-23T07:27:00.735Z,1020.17
2018-05-23T07:28:00.634Z,1020.15
2018-05-23T07:29:00.666Z,1020.16
2018-05-23T07:30:00.492Z,1020.13
2018-05-23T07:31:00.381Z,1020.18
2018-05-23T07:32:00.593Z,1020.18
2018-05-23T07:33:00.424Z,1020.15
2018-05-23T07:34:00.499Z,1020.15
2018-05-23T07:35:00.623Z,1020.15
2018-05-23T07:36:00.577Z,1020.16
2018-05-23T07:37:00.702Z,1020.2
2018-05-23T07:38:00.533Z,1020.16
2018-05-23T07:39:00.697Z,1020.2
2018-05-23T07:40:00.521Z,1020.17
2018-05-23T07:41:00.460Z,1020.19
2018-05-23T07:42:00.390Z,1020.22
2018-05-23T07:43:00.629Z,1020.19
2018-05-23T07:44:00.367Z,1020.16
2018-05-23T07:45:00.656Z,1020.18
2018-05-23T07:46:00.450Z,1020.22
2018-05-23T07:47:00.502Z,1020.2
2018-05-23T07:48:00.485Z,1020.22
2018-05-23T07:49:03.776Z,1020.24
2018-05-23T07:50:00.481Z,1020.21
2018-05-23T07:51:00.421Z,1020.26
2018-05-23T07:52:00.721Z,1020.26
2018-05-23T07:53:00.489Z,1020.25
2018-05-23T07:54:00.596Z,1020.31
2018-05-23T07:55:00.476Z,1020.31
2018-05-23T07:56:00.488Z,1020.36
2018-05-23T07:57:00.584Z,1020.32
2018-05-23T07:58:00.490Z,1020.34
2018-05-23T07:59:00.537Z,1020.39
2018-05-23T08:00:00.345Z,1020.39
2018-05-23T08:01:00.534Z,1020.41
2018-05-23T08:02:00.537Z,1020.49
2018-05-23T08:03:00.585Z,1020.48
2018-05-23T08:04:00.555Z,1020.55
2018-05-23T08:05:00.570Z,1020.59
2018-05-23T08:06:00.438Z,1020.61
2018-05-23T08:07:00.415Z,1020.57
2018-05-23T08:08:00.534Z,1020.6
2018-05-23T08:09:00.400Z,1020.59
2018-05-23T08:10:00.418Z,1020.55
2018-05-23T08:11:00.480Z,1020.56
2018-05-23T08:12:00.513Z,1020.56
2018-05-23T08:13:00.669Z,1020.46
2018-05-23T08:14:00.608Z,1020.46
2018-05-23T08:15:00.512Z,1020.41
2018-05-23T08:16:00.486Z,1020.42
2018-05-23T08:17:00.457Z,1020.4
2018-05-23T08:18:00.365Z,1020.4
2018-05-23T08:19:00.631Z,1020.43
2018-05-23T08:20:00.620Z,1020.39
2018-05-23T08:21:00.450Z,1020.41
2018-05-23T08:22:00.386Z,1020.39
2018-05-23T08:23:00.517Z,1020.42
2018-05-23T08:24:00.755Z,1020.4
2018-05-23T08:25:00.616Z,1020.35
2018-05-23T08:26:00.417Z,1020.33
2018-05-23T08:27:00.351Z,1020.3
2018-05-23T08:28:00.494Z,1020.29
2018-05-23T08:29:00.541Z,1020.34
2018-05-23T08:30:00.407Z,1020.35
2018-05-23T08:31:00.627Z,1020.33
2018-05-23T08:32:00.491Z,1020.37
2018-05-23T08:33:00.444Z,1020.37
2018-05-23T08:34:00.631Z,1020.4
2018-05-23T08:35:00.385Z,1020.45
2018-05-23T08:36:00.387Z,1020.4
2018-05-23T08:37:00.447Z,1020.46
2018-05-23T08:38:00.428Z,1020.44
2018-05-23T08:39:00.774Z,1020.46
2018-05-23T08:40:00.459Z,1020.52
2018-05-23T08:41:00.579Z,1020.52
2018-05-23T08:42:00.437Z,1020.58
2018-05-23T08:43:00.356Z,1020.56
2018-05-23T08:44:00.640Z,1020.56
2018-05-23T08:45:00.526Z,1020.6
2018-05-23T08:46:00.623Z,1020.59
2018-05-23T08:47:10.408Z,1020.58
2018-05-23T08:48:00.577Z,1020.59
2018-05-23T08:49:00.692Z,1020.61
2018-05-23T08:50:00.616Z,1020.62
2018-05-23T08:51:00.596Z,1020.68
2018-05-23T08:52:00.389Z,1020.63
2018-05-23T08:53:00.524Z,1020.67
2018-05-23T08:54:00.775Z,1020.66
2018-05-23T08:55:00.629Z,1020.69
2018-05-23T08:56:00.511Z,1020.69
2018-05-23T08:57:00.481Z,1020.69
2018-05-23T08:58:00.447Z,1020.71
2018-05-23T08:59:00.503Z,1020.71
2018-05-23T09:00:00.431Z,1020.71
2018-05-23T09:01:00.493Z,1020.71
2018-05-23T09:02:00.566Z,1020.68
2018-05-23T09:03:00.529Z,1020.64
2018-05-23T09:04:00.688Z,1020.67
2018-05-23T09:05:00.852Z,1020.67
2018-05-23T09:06:00.562Z,1020.64
2018-05-23T09:07:00.519Z,1020.67
2018-05-23T09:08:00.381Z,1020.63
2018-05-23T09:09:00.445Z,1020.63
2018-05-23T09:10:00.502Z,1020.63
2018-05-23T09:11:00.553Z,1020.61
2018-05-23T09:12:00.441Z,1020.61
2018-05-23T09:13:00.528Z,1020.63
2018-05-23T09:14:00.480Z,1020.62
2018-05-23T09:15:00.453Z,1020.6
2018-05-23T09:16:00.488Z,1020.67
2018-05-23T09:17:00.392Z,1020.62
2018-05-23T09:18:00.360Z,1020.64
2018-05-23T09:19:00.703Z,1020.66
2018-05-23T09:20:00.416Z,1020.68
2018-05-23T09:21:00.404Z,1020.66
2018-05-23T09:22:00.586Z,1020.68
2018-05-23T09:23:00.672Z,1020.69
2018-05-23T09:24:00.448Z,1020.67
2018-05-23T09:25:00.537Z,1020.68
2018-05-23T09:26:00.376Z,1020.67
2018-05-23T09:27:00.544Z,1020.69
2018-05-23T09:28:00.385Z,1020.65
2018-05-23T09:29:00.436Z,1020.67
2018-05-23T09:30:00.613Z,1020.7
2018-05-23T09:31:00.406Z,1020.69
2018-05-23T09:32:00.581Z,1020.74
2018-05-23T09:33:00.482Z,1020.72
2018-05-23T09:34:00.334Z,1020.71
2018-05-23T09:35:00.406Z,1020.79
2018-05-23T09:36:00.648Z,1020.74
2018-05-23T09:37:00.701Z,1020.74
2018-05-23T09:38:00.396Z,1020.79
2018-05-23T09:39:00.415Z,1020.77
2018-05-23T09:40:00.397Z,1020.77
2018-05-23T09:41:00.570Z,1020.74
2018-05-23T09:42:00.557Z,1020.78
2018-05-23T09:43:00.489Z,1020.78
2018-05-23T09:44:00.377Z,1020.75
2018-05-23T09:45:00.553Z,1020.75
2018-05-23T09:46:00.439Z,1020.79
2018-05-23T09:47:00.517Z,1020.77
2018-05-23T09:48:00.556Z,1020.78
2018-05-23T09:49:00.666Z,1020.83
2018-05-23T09:50:00.407Z,1020.79
2018-05-23T09:51:00.455Z,1020.82
2018-05-23T09:52:00.441Z,1020.81
2018-05-23T09:53:00.425Z,1020.8
2018-05-23T09:54:00.711Z,1020.81
2018-05-23T09:55:00.738Z,1020.76
2018-05-23T09:56:00.599Z,1020.82
2018-05-23T09:57:00.496Z,1020.81
2018-05-23T09:58:00.397Z,1020.82
2018-05-23T09:59:00.364Z,1020.8
2018-05-23T10:00:00.536Z,1020.84
2018-05-23T10:01:00.432Z,1020.84
2018-05-23T10:02:00.383Z,1020.82
2018-05-23T10:03:00.631Z,1020.84
2018-05-23T10:04:00.403Z,1020.81
2018-05-23T10:05:00.392Z,1020.84
2018-05-23T10:06:00.662Z,1020.84
2018-05-23T10:07:00.701Z,1020.8
2018-05-23T10:08:00.715Z,1020.81
2018-05-23T10:09:00.396Z,1020.77
2018-05-23T10:10:00.482Z,1020.81
2018-05-23T10:11:00.338Z,1020.76
2018-05-23T10:12:00.466Z,1020.78
2018-05-23T10:13:00.429Z,1020.8
2018-05-23T10:14:00.664Z,1020.78
2018-05-23T10:15:00.481Z,1020.82
2018-05-23T10:16:00.479Z,1020.76
2018-05-23T10:17:00.353Z,1020.81
2018-05-23T10:18:00.430Z,1020.8
2018-05-23T10:19:00.367Z,1020.81
2018-05-23T10:20:00.383Z,1020.8
2018-05-23T10:21:00.384Z,1020.8
2018-05-23T10:22:00.509Z,1020.78
2018-05-23T10:23:00.423Z,1020.75
2018-05-23T10:24:00.703Z,1020.75
2018-05-23T10:25:00.600Z,1020.72
2018-05-23T10:26:00.553Z,1020.76
2018-05-23T10:27:00.556Z,1020.76
2018-05-23T10:28:00.428Z,1020.76
2018-05-23T10:29:00.361Z,1020.74
2018-05-23T10:30:00.454Z,1020.78
2018-05-23T10:31:00.549Z,1020.78
2018-05-23T10:32:00.621Z,1020.75
2018-05-23T10:33:00.435Z,1020.76
2018-05-23T10:34:00.501Z,1020.77
2018-05-23T10:35:00.333Z,1020.78
2018-05-23T10:36:00.657Z,1020.76
2018-05-23T10:37:00.359Z,1020.75
2018-05-23T10:38:00.328Z,1020.76
2018-05-23T10:39:00.543Z,1020.74
2018-05-23T10:40:00.526Z,1020.74
2018-05-23T10:41:00.485Z,1020.72
2018-05-23T10:42:00.529Z,1020.76
2018-05-23T10:43:00.569Z,1020.74
2018-05-23T10:44:00.375Z,1020.75
2018-05-23T10:45:00.528Z,1020.7
2018-05-23T10:46:00.567Z,1020.72
2018-05-23T10:47:00.393Z,1020.76
2018-05-23T10:48:00.387Z,1020.77
2018-05-23T10:49:00.568Z,1020.72
2018-05-23T10:50:00.331Z,1020.74
2018-05-23T10:51:00.375Z,1020.72
2018-05-23T10:52:00.756Z,1020.73
2018-05-23T10:53:00.599Z,1020.74
2018-05-23T10:54:00.373Z,1020.75
2018-05-23T10:55:00.324Z,1020.73
2018-05-23T10:56:00.529Z,1020.74
2018-05-23T10:57:00.550Z,1020.74
2018-05-23T10:58:00.360Z,1020.75
2018-05-23T10:59:00.558Z,1020.72
2018-05-23T11:00:00.438Z,1020.74
2018-05-23T11:01:00.481Z,1020.73
2018-05-23T11:02:00.586Z,1020.67
2018-05-23T11:03:00.711Z,1020.72
2018-05-23T11:04:00.405Z,1020.72
2018-05-23T11:05:00.356Z,1020.69
2018-05-23T11:06:00.907Z,1020.73
2018-05-23T11:07:00.488Z,1020.68
2018-05-23T11:08:00.449Z,1020.7
2018-05-23T11:09:00.774Z,1020.72
2018-05-23T11:10:00.469Z,1020.68
2018-05-23T11:11:00.698Z,1020.69
2018-05-23T11:12:00.821Z,1020.73
2018-05-23T11:13:00.393Z,1020.7
2018-05-23T11:14:00.433Z,1020.69
2018-05-23T11:15:00.603Z,1020.65
2018-05-23T11:16:10.449Z,1020.66
2018-05-23T11:17:00.790Z,1020.71
2018-05-23T11:18:00.563Z,1020.69
2018-05-23T11:19:00.408Z,1020.71
2018-05-23T11:20:00.474Z,1020.72
2018-05-23T11:21:00.385Z,1020.71
2018-05-23T11:22:00.449Z,1020.71
2018-05-23T11:23:00.392Z,1020.73
2018-05-23T11:24:00.637Z,1020.75
2018-05-23T11:25:00.496Z,1020.67
2018-05-23T11:26:00.366Z,1020.69
2018-05-23T11:27:00.523Z,1020.69
2018-05-23T11:28:00.458Z,1020.66
2018-05-23T11:29:00.378Z,1020.71
2018-05-23T11:30:00.563Z,1020.69
2018-05-23T11:31:00.438Z,1020.65
2018-05-23T11:32:00.399Z,1020.7
2018-05-23T11:33:00.519Z,1020.72
2018-05-23T11:34:00.549Z,1020.69
2018-05-23T11:35:00.345Z,1020.64
2018-05-23T11:36:00.372Z,1020.68
2018-05-23T11:37:00.496Z,1020.65
2018-05-23T11:38:00.556Z,1020.59
2018-05-23T11:39:00.308Z,1020.59
2018-05-23T11:40:00.763Z,1020.6
2018-05-23T11:41:00.386Z,1020.58
2018-05-23T11:42:00.481Z,1020.62
2018-05-23T11:43:00.590Z,1020.61
2018-05-23T11:44:00.311Z,1020.64
2018-05-23T11:45:00.345Z,1020.66
2018-05-23T11:46:00.491Z,1020.62
2018-05-23T11:47:00.451Z,1020.6
2018-05-23T11:48:00.439Z,1020.57
2018-05-23T11:49:00.433Z,1020.61
2018-05-23T11:50:00.331Z,1020.53
2018-05-23T11:51:00.464Z,1020.56
2018-05-23T11:52:00.436Z,1020.56
2018-05-23T11:53:00.270Z,1020.56
2018-05-23T11:54:00.554Z,1020.51
2018-05-23T11:55:00.533Z,1020.54
2018-05-23T11:56:00.482Z,1020.52
2018-05-23T11:57:00.361Z,1020.46
2018-05-23T11:58:00.426Z,1020.49
2018-05-23T11:59:00.526Z,1020.45
2018-05-23T12:00:00.535Z,1020.39
2018-05-23T12:01:00.444Z,1020.39
2018-05-23T12:02:00.350Z,1020.37
2018-05-23T12:03:00.378Z,1020.38
2018-05-23T12:04:00.315Z,1020.36
2018-05-23T12:05:00.445Z,1020.37
2018-05-23T12:06:00.467Z,1020.32
2018-05-23T12:07:00.445Z,1020.31